sensor_id;sensor_type;location;lat;lon;timestamp;temperature;humidity
23114;DHT22;11726;50.122;8.832;2022-12-29T00:00:04;11.40;99.90
23114;DHT22;11726;50.122;8.832;2022-12-29T00:02:31;11.40;99.90
23114;DHT22;11726;50.122;8.832;2022-12-29T00:04:58;11.40;99.90
23114;DHT22;11726;50.122;8.832;2022-12-29T00:07:25;11.50;99.90
23114;DHT22;11726;50.122;8.832;2022-12-29T00:09:51;11.50;99.90
23114;DHT22;11726;50.122;8.832;2022-12-29T00:12:18;11.50;99.90
23114;DHT22;11726;50.122;8.832;2022-12-29T00:14:45;11.40;99.90
23114;DHT22;11726;50.122;8.832;2022-12-29T00:17:30;11.40;99.90
23114;DHT22;11726;50.122;8.832;2022-12-29T00:19:56;11.50;99.90
23114;DHT22;11726;50.122;8.832;2022-12-29T00:22:43;11.50;99.90
23114;DHT22;11726;50.122;8.832;2022-12-29T00:25:28;11.50;99.90
23114;DHT22;11726;50.122;8.832;2022-12-29T00:28:14;11.60;99.90
23114;DHT22;11726;50.122;8.832;2022-12-29T00:31:00;11.60;99.90
23114;DHT22;11726;50.122;8.832;2022-12-29T00:33:46;11.60;99.90
23114;DHT22;11726;50.122;8.832;2022-12-29T00:36:35;11.50;99.90
23114;DHT22;11726;50.122;8.832;2022-12-29T00:39:08;11.30;99.90
23114;DHT22;11726;50.122;8.832;2022-12-29T00:41:55;11.20;99.90
23114;DHT22;11726;50.122;8.832;2022-12-29T00:44:40;11.00;99.90
23114;DHT22;11726;50.122;8.832;2022-12-29T00:47:07;10.90;99.90
23114;DHT22;11726;50.122;8.832;2022-12-29T00:49:33;10.90;99.90
23114;DHT22;11726;50.122;8.832;2022-12-29T00:52:06;11.00;99.90
23114;DHT22;11726;50.122;8.832;2022-12-29T00:54:35;10.90;99.90
23114;DHT22;11726;50.122;8.832;2022-12-29T00:57:04;11.00;99.90
23114;DHT22;11726;50.122;8.832;2022-12-29T00:59:31;11.10;99.90
23114;DHT22;11726;50.122;8.832;2022-12-29T01:01:58;11.00;99.90
23114;DHT22;11726;50.122;8.832;2022-12-29T01:04:26;10.90;99.90
23114;DHT22;11726;50.122;8.832;2022-12-29T01:06:52;10.90;99.90
23114;DHT22;11726;50.122;8.832;2022-12-29T01:09:19;10.80;99.90
23114;DHT22;11726;50.122;8.832;2022-12-29T01:12:05;10.80;99.90
23114;DHT22;11726;50.122;8.832;2022-12-29T01:14:32;10.60;99.90
23114;DHT22;11726;50.122;8.832;2022-12-29T01:16:59;10.60;99.90
23114;DHT22;11726;50.122;8.832;2022-12-29T01:19:26;10.60;99.90
23114;DHT22;11726;50.122;8.832;2022-12-29T01:21:52;10.50;99.90
23114;DHT22;11726;50.122;8.832;2022-12-29T01:24:20;10.50;99.90
23114;DHT22;11726;50.122;8.832;2022-12-29T01:26:47;10.60;99.90
23114;DHT22;11726;50.122;8.832;2022-12-29T01:29:13;10.60;99.90
23114;DHT22;11726;50.122;8.832;2022-12-29T01:31:40;10.70;99.90
23114;DHT22;11726;50.122;8.832;2022-12-29T01:34:07;10.60;99.90
23114;DHT22;11726;50.122;8.832;2022-12-29T01:36:34;10.70;99.90
23114;DHT22;11726;50.122;8.832;2022-12-29T01:39:00;10.60;99.90
23114;DHT22;11726;50.122;8.832;2022-12-29T01:41:27;10.70;99.90
23114;DHT22;11726;50.122;8.832;2022-12-29T01:43:56;10.70;99.90
23114;DHT22;11726;50.122;8.832;2022-12-29T01:46:32;10.80;99.90
23114;DHT22;11726;50.122;8.832;2022-12-29T01:49:14;10.90;99.90
23114;DHT22;11726;50.122;8.832;2022-12-29T01:52:03;10.90;99.90
23114;DHT22;11726;50.122;8.832;2022-12-29T01:54:36;10.90;99.90
23114;DHT22;11726;50.122;8.832;2022-12-29T01:57:11;11.00;99.90
23114;DHT22;11726;50.122;8.832;2022-12-29T01:59:43;11.00;99.90
23114;DHT22;11726;50.122;8.832;2022-12-29T02:02:12;11.10;99.90
23114;DHT22;11726;50.122;8.832;2022-12-29T02:04:42;11.10;99.90
23114;DHT22;11726;50.122;8.832;2022-12-29T02:07:17;11.00;99.90
23114;DHT22;11726;50.122;8.832;2022-12-29T02:09:48;11.10;99.90
23114;DHT22;11726;50.122;8.832;2022-12-29T02:12:16;11.10;99.90
23114;DHT22;11726;50.122;8.832;2022-12-29T02:14:44;11.10;99.90
23114;DHT22;11726;50.122;8.832;2022-12-29T02:20:26;11.20;99.90
23114;DHT22;11726;50.122;8.832;2022-12-29T02:37:03;11.40;99.90
23114;DHT22;11726;50.122;8.832;2022-12-29T02:39:52;11.40;99.90
23114;DHT22;11726;50.122;8.832;2022-12-29T02:44:57;11.40;99.90
23114;DHT22;11726;50.122;8.832;2022-12-29T02:53:32;11.50;99.90
23114;DHT22;11726;50.122;8.832;2022-12-29T02:56:19;11.40;99.90
23114;DHT22;11726;50.122;8.832;2022-12-29T02:58:46;11.40;99.90
23114;DHT22;11726;50.122;8.832;2022-12-29T03:01:29;11.40;99.90
23114;DHT22;11726;50.122;8.832;2022-12-29T03:09:35;11.30;99.90
23114;DHT22;11726;50.122;8.832;2022-12-29T03:12:26;11.30;99.90
23114;DHT22;11726;50.122;8.832;2022-12-29T03:15:19;11.30;99.90
23114;DHT22;11726;50.122;8.832;2022-12-29T03:18:15;11.40;99.90
23114;DHT22;11726;50.122;8.832;2022-12-29T03:21:00;11.50;99.90
23114;DHT22;11726;50.122;8.832;2022-12-29T03:23:29;11.50;99.90
23114;DHT22;11726;50.122;8.832;2022-12-29T03:25:58;11.50;99.90
23114;DHT22;11726;50.122;8.832;2022-12-29T03:28:33;11.50;99.90
23114;DHT22;11726;50.122;8.832;2022-12-29T03:31:03;11.50;99.90
23114;DHT22;11726;50.122;8.832;2022-12-29T03:33:31;11.40;99.90
23114;DHT22;11726;50.122;8.832;2022-12-29T03:36:03;11.50;99.90
23114;DHT22;11726;50.122;8.832;2022-12-29T03:38:42;11.50;99.90
23114;DHT22;11726;50.122;8.832;2022-12-29T03:41:15;11.50;99.90
23114;DHT22;11726;50.122;8.832;2022-12-29T03:43:43;11.50;99.90
23114;DHT22;11726;50.122;8.832;2022-12-29T03:46:10;11.60;99.90
23114;DHT22;11726;50.122;8.832;2022-12-29T03:48:37;11.50;99.90
23114;DHT22;11726;50.122;8.832;2022-12-29T03:51:03;11.60;99.90
23114;DHT22;11726;50.122;8.832;2022-12-29T03:53:30;11.50;99.90
23114;DHT22;11726;50.122;8.832;2022-12-29T03:55:57;11.60;99.90
23114;DHT22;11726;50.122;8.832;2022-12-29T03:58:23;11.70;99.90
23114;DHT22;11726;50.122;8.832;2022-12-29T04:00:50;11.60;99.90
23114;DHT22;11726;50.122;8.832;2022-12-29T04:03:16;11.70;99.90
23114;DHT22;11726;50.122;8.832;2022-12-29T04:05:43;11.70;99.90
23114;DHT22;11726;50.122;8.832;2022-12-29T04:08:10;11.60;99.90
23114;DHT22;11726;50.122;8.832;2022-12-29T04:10:37;11.70;99.90
23114;DHT22;11726;50.122;8.832;2022-12-29T04:13:03;11.70;99.90
23114;DHT22;11726;50.122;8.832;2022-12-29T04:15:30;11.70;99.90
23114;DHT22;11726;50.122;8.832;2022-12-29T04:17:58;11.60;99.90
23114;DHT22;11726;50.122;8.832;2022-12-29T04:20:25;11.60;99.90
23114;DHT22;11726;50.122;8.832;2022-12-29T04:23:10;11.80;99.90
23114;DHT22;11726;50.122;8.832;2022-12-29T04:25:36;11.80;99.90
23114;DHT22;11726;50.122;8.832;2022-12-29T04:28:03;11.80;99.90
23114;DHT22;11726;50.122;8.832;2022-12-29T04:30:30;11.80;99.90
23114;DHT22;11726;50.122;8.832;2022-12-29T04:32:56;11.80;99.90
23114;DHT22;11726;50.122;8.832;2022-12-29T04:35:23;11.80;99.90
23114;DHT22;11726;50.122;8.832;2022-12-29T04:37:49;11.90;99.90
23114;DHT22;11726;50.122;8.832;2022-12-29T04:40:16;12.00;99.90
23114;DHT22;11726;50.122;8.832;2022-12-29T04:42:42;12.10;99.90
23114;DHT22;11726;50.122;8.832;2022-12-29T04:45:09;12.10;99.90
23114;DHT22;11726;50.122;8.832;2022-12-29T04:47:36;12.10;99.90
23114;DHT22;11726;50.122;8.832;2022-12-29T04:50:03;12.10;99.90
23114;DHT22;11726;50.122;8.832;2022-12-29T04:52:30;12.10;99.90
23114;DHT22;11726;50.122;8.832;2022-12-29T04:54:57;12.10;99.90
23114;DHT22;11726;50.122;8.832;2022-12-29T04:57:24;12.10;99.90
23114;DHT22;11726;50.122;8.832;2022-12-29T04:59:50;12.20;99.90
23114;DHT22;11726;50.122;8.832;2022-12-29T05:02:17;12.10;99.90
23114;DHT22;11726;50.122;8.832;2022-12-29T05:04:44;12.20;99.90
23114;DHT22;11726;50.122;8.832;2022-12-29T05:07:11;12.30;99.90
23114;DHT22;11726;50.122;8.832;2022-12-29T05:09:38;12.20;99.90
23114;DHT22;11726;50.122;8.832;2022-12-29T05:12:04;12.20;99.90
23114;DHT22;11726;50.122;8.832;2022-12-29T05:14:31;12.20;99.90
23114;DHT22;11726;50.122;8.832;2022-12-29T05:16:58;12.20;99.90
23114;DHT22;11726;50.122;8.832;2022-12-29T05:19:25;12.20;99.90
23114;DHT22;11726;50.122;8.832;2022-12-29T05:21:51;12.20;99.90
23114;DHT22;11726;50.122;8.832;2022-12-29T05:24:18;12.10;99.90
23114;DHT22;11726;50.122;8.832;2022-12-29T05:26:45;12.20;99.90
23114;DHT22;11726;50.122;8.832;2022-12-29T05:29:11;12.10;99.90
23114;DHT22;11726;50.122;8.832;2022-12-29T05:31:38;12.00;99.90
23114;DHT22;11726;50.122;8.832;2022-12-29T05:34:05;12.00;99.90
23114;DHT22;11726;50.122;8.832;2022-12-29T05:36:31;12.10;99.90
23114;DHT22;11726;50.122;8.832;2022-12-29T05:39:03;12.20;99.90
23114;DHT22;11726;50.122;8.832;2022-12-29T05:41:30;12.20;99.90
23114;DHT22;11726;50.122;8.832;2022-12-29T05:43:57;12.10;99.90
23114;DHT22;11726;50.122;8.832;2022-12-29T05:46:23;12.10;99.90
23114;DHT22;11726;50.122;8.832;2022-12-29T05:48:50;12.00;99.90
23114;DHT22;11726;50.122;8.832;2022-12-29T05:51:17;12.10;99.90
23114;DHT22;11726;50.122;8.832;2022-12-29T05:53:43;12.10;99.90
23114;DHT22;11726;50.122;8.832;2022-12-29T05:56:10;12.20;99.90
23114;DHT22;11726;50.122;8.832;2022-12-29T05:58:37;12.20;99.90
23114;DHT22;11726;50.122;8.832;2022-12-29T06:01:03;12.10;99.90
23114;DHT22;11726;50.122;8.832;2022-12-29T06:03:30;12.10;99.90
23114;DHT22;11726;50.122;8.832;2022-12-29T06:05:57;12.20;99.90
23114;DHT22;11726;50.122;8.832;2022-12-29T06:08:24;12.20;99.90
23114;DHT22;11726;50.122;8.832;2022-12-29T06:10:50;12.20;99.90
23114;DHT22;11726;50.122;8.832;2022-12-29T06:13:17;12.20;99.90
23114;DHT22;11726;50.122;8.832;2022-12-29T06:15:43;12.30;99.90
23114;DHT22;11726;50.122;8.832;2022-12-29T06:18:10;12.30;99.90
23114;DHT22;11726;50.122;8.832;2022-12-29T06:20:45;12.30;99.90
23114;DHT22;11726;50.122;8.832;2022-12-29T06:23:12;12.30;99.90
23114;DHT22;11726;50.122;8.832;2022-12-29T06:25:39;12.30;99.90
23114;DHT22;11726;50.122;8.832;2022-12-29T06:28:06;12.30;99.90
23114;DHT22;11726;50.122;8.832;2022-12-29T06:30:33;12.30;99.90
23114;DHT22;11726;50.122;8.832;2022-12-29T06:33:00;12.40;99.90
23114;DHT22;11726;50.122;8.832;2022-12-29T06:35:26;12.40;99.90
23114;DHT22;11726;50.122;8.832;2022-12-29T06:37:54;12.50;99.90
23114;DHT22;11726;50.122;8.832;2022-12-29T06:40:20;12.50;99.90
23114;DHT22;11726;50.122;8.832;2022-12-29T06:42:48;12.50;99.90
23114;DHT22;11726;50.122;8.832;2022-12-29T06:45:14;12.50;99.90
23114;DHT22;11726;50.122;8.832;2022-12-29T06:47:42;12.60;99.90
23114;DHT22;11726;50.122;8.832;2022-12-29T06:50:10;12.60;99.90
23114;DHT22;11726;50.122;8.832;2022-12-29T06:52:36;12.50;99.90
23114;DHT22;11726;50.122;8.832;2022-12-29T06:55:03;12.60;99.90
23114;DHT22;11726;50.122;8.832;2022-12-29T06:57:30;12.60;99.90
23114;DHT22;11726;50.122;8.832;2022-12-29T06:59:56;12.70;99.90
23114;DHT22;11726;50.122;8.832;2022-12-29T07:02:23;12.70;99.90
23114;DHT22;11726;50.122;8.832;2022-12-29T07:04:52;12.70;99.90
23114;DHT22;11726;50.122;8.832;2022-12-29T07:07:20;12.50;99.90
23114;DHT22;11726;50.122;8.832;2022-12-29T07:09:46;12.60;99.90
23114;DHT22;11726;50.122;8.832;2022-12-29T07:12:13;12.60;99.90
23114;DHT22;11726;50.122;8.832;2022-12-29T07:14:40;12.60;99.90
23114;DHT22;11726;50.122;8.832;2022-12-29T07:17:09;12.60;99.90
23114;DHT22;11726;50.122;8.832;2022-12-29T07:19:36;12.60;99.90
23114;DHT22;11726;50.122;8.832;2022-12-29T07:22:02;12.60;99.90
23114;DHT22;11726;50.122;8.832;2022-12-29T07:24:29;12.60;99.90
23114;DHT22;11726;50.122;8.832;2022-12-29T07:26:56;12.60;99.90
23114;DHT22;11726;50.122;8.832;2022-12-29T07:29:23;12.50;99.90
23114;DHT22;11726;50.122;8.832;2022-12-29T07:31:49;12.50;99.90
23114;DHT22;11726;50.122;8.832;2022-12-29T07:34:16;12.40;99.90
23114;DHT22;11726;50.122;8.832;2022-12-29T07:36:43;12.50;99.90
23114;DHT22;11726;50.122;8.832;2022-12-29T07:39:09;12.50;99.90
23114;DHT22;11726;50.122;8.832;2022-12-29T07:41:36;12.50;99.90
23114;DHT22;11726;50.122;8.832;2022-12-29T07:44:02;12.50;99.90
23114;DHT22;11726;50.122;8.832;2022-12-29T07:46:29;12.30;99.90
23114;DHT22;11726;50.122;8.832;2022-12-29T07:49:16;12.40;99.90
23114;DHT22;11726;50.122;8.832;2022-12-29T07:51:42;12.60;99.90
23114;DHT22;11726;50.122;8.832;2022-12-29T07:54:09;12.60;99.90
23114;DHT22;11726;50.122;8.832;2022-12-29T07:56:36;12.60;99.90
23114;DHT22;11726;50.122;8.832;2022-12-29T07:59:03;12.60;99.90
23114;DHT22;11726;50.122;8.832;2022-12-29T08:01:29;12.70;99.90
23114;DHT22;11726;50.122;8.832;2022-12-29T08:03:56;12.70;99.90
23114;DHT22;11726;50.122;8.832;2022-12-29T08:06:23;12.70;99.90
23114;DHT22;11726;50.122;8.832;2022-12-29T08:08:50;12.80;99.90
23114;DHT22;11726;50.122;8.832;2022-12-29T08:11:16;12.80;99.90
23114;DHT22;11726;50.122;8.832;2022-12-29T08:13:43;12.80;99.90
23114;DHT22;11726;50.122;8.832;2022-12-29T08:16:10;12.80;99.90
23114;DHT22;11726;50.122;8.832;2022-12-29T08:18:36;12.90;99.90
23114;DHT22;11726;50.122;8.832;2022-12-29T08:21:03;12.90;99.90
23114;DHT22;11726;50.122;8.832;2022-12-29T08:23:30;12.90;99.90
23114;DHT22;11726;50.122;8.832;2022-12-29T08:26:02;12.90;99.90
23114;DHT22;11726;50.122;8.832;2022-12-29T08:28:29;12.90;99.90
23114;DHT22;11726;50.122;8.832;2022-12-29T08:31:01;12.90;99.90
23114;DHT22;11726;50.122;8.832;2022-12-29T08:33:28;12.90;99.90
23114;DHT22;11726;50.122;8.832;2022-12-29T08:36:03;12.80;99.90
23114;DHT22;11726;50.122;8.832;2022-12-29T08:38:30;12.90;99.90
23114;DHT22;11726;50.122;8.832;2022-12-29T08:40:57;12.90;99.90
23114;DHT22;11726;50.122;8.832;2022-12-29T08:43:24;12.80;99.90
23114;DHT22;11726;50.122;8.832;2022-12-29T08:45:52;12.90;99.90
23114;DHT22;11726;50.122;8.832;2022-12-29T08:48:18;12.80;99.90
23114;DHT22;11726;50.122;8.832;2022-12-29T08:50:48;12.80;99.90
23114;DHT22;11726;50.122;8.832;2022-12-29T08:53:16;12.80;99.90
23114;DHT22;11726;50.122;8.832;2022-12-29T08:55:47;12.80;99.90
23114;DHT22;11726;50.122;8.832;2022-12-29T08:58:28;12.90;99.90
23114;DHT22;11726;50.122;8.832;2022-12-29T09:00:55;13.00;99.90
23114;DHT22;11726;50.122;8.832;2022-12-29T09:03:24;13.00;99.90
23114;DHT22;11726;50.122;8.832;2022-12-29T09:06:10;12.90;99.90
23114;DHT22;11726;50.122;8.832;2022-12-29T09:08:37;12.70;99.90
23114;DHT22;11726;50.122;8.832;2022-12-29T09:11:13;12.60;99.90
23114;DHT22;11726;50.122;8.832;2022-12-29T09:13:40;12.50;99.90
23114;DHT22;11726;50.122;8.832;2022-12-29T09:16:07;12.40;99.90
23114;DHT22;11726;50.122;8.832;2022-12-29T09:18:34;12.30;99.90
23114;DHT22;11726;50.122;8.832;2022-12-29T09:21:03;12.20;99.90
23114;DHT22;11726;50.122;8.832;2022-12-29T09:23:30;12.20;99.90
23114;DHT22;11726;50.122;8.832;2022-12-29T09:25:57;12.10;99.90
23114;DHT22;11726;50.122;8.832;2022-12-29T09:28:24;12.00;99.90
23114;DHT22;11726;50.122;8.832;2022-12-29T09:30:51;12.00;99.90
23114;DHT22;11726;50.122;8.832;2022-12-29T09:33:18;11.90;99.90
23114;DHT22;11726;50.122;8.832;2022-12-29T09:35:56;11.70;99.90
23114;DHT22;11726;50.122;8.832;2022-12-29T09:38:24;11.70;99.90
23114;DHT22;11726;50.122;8.832;2022-12-29T09:41:05;11.70;99.90
23114;DHT22;11726;50.122;8.832;2022-12-29T09:46:41;11.70;99.90
23114;DHT22;11726;50.122;8.832;2022-12-29T09:52:25;11.60;99.90
23114;DHT22;11726;50.122;8.832;2022-12-29T09:55:03;11.50;99.90
23114;DHT22;11726;50.122;8.832;2022-12-29T10:00:17;11.30;99.90
23114;DHT22;11726;50.122;8.832;2022-12-29T10:02:50;11.30;99.90
23114;DHT22;11726;50.122;8.832;2022-12-29T10:08:04;11.10;99.90
23114;DHT22;11726;50.122;8.832;2022-12-29T10:10:53;11.10;99.90
23114;DHT22;11726;50.122;8.832;2022-12-29T10:19:55;10.90;99.90
23114;DHT22;11726;50.122;8.832;2022-12-29T10:25:23;10.80;99.90
23114;DHT22;11726;50.122;8.832;2022-12-29T10:27:59;10.80;99.90
23114;DHT22;11726;50.122;8.832;2022-12-29T10:30:28;10.80;99.90
23114;DHT22;11726;50.122;8.832;2022-12-29T10:32:58;10.80;99.90
23114;DHT22;11726;50.122;8.832;2022-12-29T10:35:33;10.80;99.90
23114;DHT22;11726;50.122;8.832;2022-12-29T10:38:20;10.80;99.90
23114;DHT22;11726;50.122;8.832;2022-12-29T10:41:00;10.90;99.90
23114;DHT22;11726;50.122;8.832;2022-12-29T10:43:32;10.90;99.90
23114;DHT22;11726;50.122;8.832;2022-12-29T10:46:16;10.90;99.90
23114;DHT22;11726;50.122;8.832;2022-12-29T10:48:44;10.90;99.90
23114;DHT22;11726;50.122;8.832;2022-12-29T10:51:25;10.90;99.90
23114;DHT22;11726;50.122;8.832;2022-12-29T10:54:13;10.90;99.90
23114;DHT22;11726;50.122;8.832;2022-12-29T10:56:54;10.90;99.90
23114;DHT22;11726;50.122;8.832;2022-12-29T10:59:26;10.90;99.90
23114;DHT22;11726;50.122;8.832;2022-12-29T11:04:52;11.00;99.90
23114;DHT22;11726;50.122;8.832;2022-12-29T11:07:22;11.20;99.90
23114;DHT22;11726;50.122;8.832;2022-12-29T11:09:52;11.30;99.90
23114;DHT22;11726;50.122;8.832;2022-12-29T11:12:27;11.30;99.90
23114;DHT22;11726;50.122;8.832;2022-12-29T11:15:15;11.40;99.90
23114;DHT22;11726;50.122;8.832;2022-12-29T11:17:52;11.40;99.90
23114;DHT22;11726;50.122;8.832;2022-12-29T11:20:31;11.50;99.90
23114;DHT22;11726;50.122;8.832;2022-12-29T11:22:58;11.50;99.90
23114;DHT22;11726;50.122;8.832;2022-12-29T11:25:25;11.90;99.90
23114;DHT22;11726;50.122;8.832;2022-12-29T11:28:01;11.90;99.90
23114;DHT22;11726;50.122;8.832;2022-12-29T11:30:30;11.80;99.90
23114;DHT22;11726;50.122;8.832;2022-12-29T11:32:58;11.90;99.90
23114;DHT22;11726;50.122;8.832;2022-12-29T11:35:32;11.90;99.90
23114;DHT22;11726;50.122;8.832;2022-12-29T11:38:00;11.90;99.90
23114;DHT22;11726;50.122;8.832;2022-12-29T11:40:28;12.00;99.90
23114;DHT22;11726;50.122;8.832;2022-12-29T11:42:58;12.00;99.90
23114;DHT22;11726;50.122;8.832;2022-12-29T11:45:29;12.40;99.90
23114;DHT22;11726;50.122;8.832;2022-12-29T11:48:06;12.40;99.90
23114;DHT22;11726;50.122;8.832;2022-12-29T11:50:37;13.00;99.90
23114;DHT22;11726;50.122;8.832;2022-12-29T11:55:59;12.80;99.90
23114;DHT22;11726;50.122;8.832;2022-12-29T11:58:35;12.60;99.90
23114;DHT22;11726;50.122;8.832;2022-12-29T12:04:17;12.50;99.90
23114;DHT22;11726;50.122;8.832;2022-12-29T12:09:57;12.40;99.90
23114;DHT22;11726;50.122;8.832;2022-12-29T12:12:39;12.40;99.90
23114;DHT22;11726;50.122;8.832;2022-12-29T12:15:13;12.40;99.90
23114;DHT22;11726;50.122;8.832;2022-12-29T12:20:54;12.50;99.90
23114;DHT22;11726;50.122;8.832;2022-12-29T12:23:30;12.50;99.90
23114;DHT22;11726;50.122;8.832;2022-12-29T12:26:04;12.60;99.90
23114;DHT22;11726;50.122;8.832;2022-12-29T12:28:52;12.70;99.90
23114;DHT22;11726;50.122;8.832;2022-12-29T12:31:41;12.70;99.90
23114;DHT22;11726;50.122;8.832;2022-12-29T12:34:36;12.70;99.90
23114;DHT22;11726;50.122;8.832;2022-12-29T12:40:07;12.70;99.90
23114;DHT22;11726;50.122;8.832;2022-12-29T12:51:14;12.60;99.90
23114;DHT22;11726;50.122;8.832;2022-12-29T12:56:56;12.60;99.90
23114;DHT22;11726;50.122;8.832;2022-12-29T12:59:38;12.60;99.90
23114;DHT22;11726;50.122;8.832;2022-12-29T13:05:20;12.60;99.90
23114;DHT22;11726;50.122;8.832;2022-12-29T13:08:24;12.50;99.90
23114;DHT22;11726;50.122;8.832;2022-12-29T13:11:06;12.40;99.90
23114;DHT22;11726;50.122;8.832;2022-12-29T13:13:57;13.10;99.90
23114;DHT22;11726;50.122;8.832;2022-12-29T13:16:40;13.40;99.90
23114;DHT22;11726;50.122;8.832;2022-12-29T13:19:22;13.30;99.90
23114;DHT22;11726;50.122;8.832;2022-12-29T13:25:34;12.90;99.90
23114;DHT22;11726;50.122;8.832;2022-12-29T13:28:15;13.00;99.90
23114;DHT22;11726;50.122;8.832;2022-12-29T13:30:57;13.30;99.90
23114;DHT22;11726;50.122;8.832;2022-12-29T13:33:52;13.60;99.90
23114;DHT22;11726;50.122;8.832;2022-12-29T13:36:29;13.80;99.90
23114;DHT22;11726;50.122;8.832;2022-12-29T13:39:05;13.80;99.90
23114;DHT22;11726;50.122;8.832;2022-12-29T13:41:51;13.90;99.90
23114;DHT22;11726;50.122;8.832;2022-12-29T13:44:25;13.80;99.90
23114;DHT22;11726;50.122;8.832;2022-12-29T13:49:44;13.70;99.90
23114;DHT22;11726;50.122;8.832;2022-12-29T13:52:20;13.50;99.90
23114;DHT22;11726;50.122;8.832;2022-12-29T13:55:01;13.30;99.90
23114;DHT22;11726;50.122;8.832;2022-12-29T14:00:29;13.10;99.90
23114;DHT22;11726;50.122;8.832;2022-12-29T14:03:23;12.90;99.90
23114;DHT22;11726;50.122;8.832;2022-12-29T14:08:37;12.80;99.90
23114;DHT22;11726;50.122;8.832;2022-12-29T14:11:09;12.90;99.90
23114;DHT22;11726;50.122;8.832;2022-12-29T14:13:42;12.80;99.90
23114;DHT22;11726;50.122;8.832;2022-12-29T14:16:26;12.80;99.90
23114;DHT22;11726;50.122;8.832;2022-12-29T14:18:56;12.80;99.90
23114;DHT22;11726;50.122;8.832;2022-12-29T14:21:25;12.70;99.90
23114;DHT22;11726;50.122;8.832;2022-12-29T14:34:48;12.50;99.90
23114;DHT22;11726;50.122;8.832;2022-12-29T14:37:27;12.50;99.90
23114;DHT22;11726;50.122;8.832;2022-12-29T14:40:22;12.50;99.90
23114;DHT22;11726;50.122;8.832;2022-12-29T14:42:54;12.50;99.90
23114;DHT22;11726;50.122;8.832;2022-12-29T14:45:30;12.40;99.90
23114;DHT22;11726;50.122;8.832;2022-12-29T14:48:21;12.30;99.90
23114;DHT22;11726;50.122;8.832;2022-12-29T14:50:55;12.30;99.90
23114;DHT22;11726;50.122;8.832;2022-12-29T14:53:48;12.30;99.90
23114;DHT22;11726;50.122;8.832;2022-12-29T14:56:17;12.30;99.90
23114;DHT22;11726;50.122;8.832;2022-12-29T14:59:04;12.30;99.90
23114;DHT22;11726;50.122;8.832;2022-12-29T15:01:49;12.20;99.90
23114;DHT22;11726;50.122;8.832;2022-12-29T15:04:22;12.20;99.90
23114;DHT22;11726;50.122;8.832;2022-12-29T15:06:51;12.10;99.90
23114;DHT22;11726;50.122;8.832;2022-12-29T15:09:51;12.10;99.90
23114;DHT22;11726;50.122;8.832;2022-12-29T15:12:21;12.10;99.90
23114;DHT22;11726;50.122;8.832;2022-12-29T15:14:58;12.10;99.90
23114;DHT22;11726;50.122;8.832;2022-12-29T15:17:32;12.00;99.90
23114;DHT22;11726;50.122;8.832;2022-12-29T15:20:25;11.80;99.90
23114;DHT22;11726;50.122;8.832;2022-12-29T15:23:09;11.70;99.90
23114;DHT22;11726;50.122;8.832;2022-12-29T15:25:44;11.70;99.90
23114;DHT22;11726;50.122;8.832;2022-12-29T15:28:13;11.70;99.90
23114;DHT22;11726;50.122;8.832;2022-12-29T15:30:51;11.70;99.90
23114;DHT22;11726;50.122;8.832;2022-12-29T15:33:19;11.60;99.90
23114;DHT22;11726;50.122;8.832;2022-12-29T15:35:50;11.70;99.90
23114;DHT22;11726;50.122;8.832;2022-12-29T15:38:27;11.60;99.90
23114;DHT22;11726;50.122;8.832;2022-12-29T15:41:04;11.70;99.90
23114;DHT22;11726;50.122;8.832;2022-12-29T15:43:47;11.60;99.90
23114;DHT22;11726;50.122;8.832;2022-12-29T15:46:16;11.60;99.90
23114;DHT22;11726;50.122;8.832;2022-12-29T15:48:43;11.50;99.90
23114;DHT22;11726;50.122;8.832;2022-12-29T15:51:18;11.50;99.90
23114;DHT22;11726;50.122;8.832;2022-12-29T15:53:47;11.50;99.90
23114;DHT22;11726;50.122;8.832;2022-12-29T15:56:15;11.50;99.90
23114;DHT22;11726;50.122;8.832;2022-12-29T15:58:47;11.50;99.90
23114;DHT22;11726;50.122;8.832;2022-12-29T16:01:35;11.50;99.90
23114;DHT22;11726;50.122;8.832;2022-12-29T16:04:07;11.40;99.90
23114;DHT22;11726;50.122;8.832;2022-12-29T16:06:36;11.40;99.90
23114;DHT22;11726;50.122;8.832;2022-12-29T16:09:33;11.40;99.90
23114;DHT22;11726;50.122;8.832;2022-12-29T16:12:03;11.30;99.90
23114;DHT22;11726;50.122;8.832;2022-12-29T16:14:48;11.20;99.90
23114;DHT22;11726;50.122;8.832;2022-12-29T16:17:20;11.10;99.90
23114;DHT22;11726;50.122;8.832;2022-12-29T16:19:51;11.10;99.90
23114;DHT22;11726;50.122;8.832;2022-12-29T16:22:27;11.10;99.90
23114;DHT22;11726;50.122;8.832;2022-12-29T16:24:57;11.10;99.90
23114;DHT22;11726;50.122;8.832;2022-12-29T16:27:39;11.10;99.90
23114;DHT22;11726;50.122;8.832;2022-12-29T16:30:23;11.00;99.90
23114;DHT22;11726;50.122;8.832;2022-12-29T16:33:00;11.00;99.90
23114;DHT22;11726;50.122;8.832;2022-12-29T16:35:29;11.00;99.90
23114;DHT22;11726;50.122;8.832;2022-12-29T16:38:20;11.00;99.90
23114;DHT22;11726;50.122;8.832;2022-12-29T16:40:55;11.00;99.90
23114;DHT22;11726;50.122;8.832;2022-12-29T16:43:27;10.90;99.90
23114;DHT22;11726;50.122;8.832;2022-12-29T16:48:36;10.80;99.90
23114;DHT22;11726;50.122;8.832;2022-12-29T16:51:18;10.90;99.90
23114;DHT22;11726;50.122;8.832;2022-12-29T16:53:52;10.80;99.90
23114;DHT22;11726;50.122;8.832;2022-12-29T16:56:22;10.70;99.90
23114;DHT22;11726;50.122;8.832;2022-12-29T16:58:53;10.70;99.90
23114;DHT22;11726;50.122;8.832;2022-12-29T17:01:24;10.70;99.90
23114;DHT22;11726;50.122;8.832;2022-12-29T17:03:54;10.70;99.90
23114;DHT22;11726;50.122;8.832;2022-12-29T17:06:23;10.60;99.90
23114;DHT22;11726;50.122;8.832;2022-12-29T17:08:50;10.60;99.90
23114;DHT22;11726;50.122;8.832;2022-12-29T17:11:28;10.60;99.90
23114;DHT22;11726;50.122;8.832;2022-12-29T17:14:30;10.70;99.90
23114;DHT22;11726;50.122;8.832;2022-12-29T17:16:58;10.70;99.90
23114;DHT22;11726;50.122;8.832;2022-12-29T17:19:32;10.60;99.90
23114;DHT22;11726;50.122;8.832;2022-12-29T17:21:59;10.60;99.90
23114;DHT22;11726;50.122;8.832;2022-12-29T17:24:26;10.60;99.90
23114;DHT22;11726;50.122;8.832;2022-12-29T17:26:56;10.60;99.90
23114;DHT22;11726;50.122;8.832;2022-12-29T17:29:27;10.50;99.90
23114;DHT22;11726;50.122;8.832;2022-12-29T17:31:55;10.50;99.90
23114;DHT22;11726;50.122;8.832;2022-12-29T17:34:22;10.60;99.90
23114;DHT22;11726;50.122;8.832;2022-12-29T17:36:48;10.60;99.90
23114;DHT22;11726;50.122;8.832;2022-12-29T17:39:15;10.50;99.90
23114;DHT22;11726;50.122;8.832;2022-12-29T17:41:42;10.50;99.90
23114;DHT22;11726;50.122;8.832;2022-12-29T17:44:15;10.50;99.90
23114;DHT22;11726;50.122;8.832;2022-12-29T17:46:47;10.60;99.90
23114;DHT22;11726;50.122;8.832;2022-12-29T17:49:16;10.40;99.90
23114;DHT22;11726;50.122;8.832;2022-12-29T17:51:45;10.40;99.90